Time;durP1;ratioP1;P1;durP2;ratioP2;P2;SDS_P1;SDS_P2;PMS_P1;PMS_P2;Temp;Humidity;BMP_temperature;BMP_pressure;BME280_temperature;BME280_humidity;BME280_pressure;Samples;Min_cycle;Max_cycle;Signal;HPM_P1;HPM_P2
2022/11/14 00:00:28;;;;;;;50.60;22.58;;;;;;;;;;4994347;28;20425;-64
2022/11/14 00:02:54;;;;;;;56.25;25.23;;;;;;;;;;4994856;28;20045;-63
2022/11/14 00:05:20;;;;;;;57.83;25.70;;;;;;;;;;5013474;28;20049;-63
2022/11/14 00:07:47;;;;;;;64.60;26.60;;;;;;;;;;4994268;28;20056;-63
2022/11/14 00:10:14;;;;;;;58.60;25.98;;;;;;;;;;5011886;28;20060;-63
2022/11/14 00:12:40;;;;;;;62.63;26.17;;;;;;;;;;4994393;28;20056;-63
2022/11/14 00:15:07;;;;;;;62.22;26.10;;;;;;;;;;5012818;28;20046;-63
2022/11/14 00:17:33;;;;;;;59.85;26.23;;;;;;;;;;4994072;28;20184;-64
2022/11/14 00:19:59;;;;;;;62.75;25.00;;;;;;;;;;5033820;22;20069;-64
2022/11/14 00:22:25;;;;;;;69.85;25.77;;;;;;;;;;5013472;28;20072;-63
2022/11/14 00:24:51;;;;;;;61.95;26.60;;;;;;;;;;5015159;28;20049;-63
2022/11/14 00:27:17;;;;;;;63.08;27.02;;;;;;;;;;5031629;28;20128;-63
2022/11/14 00:29:43;;;;;;;57.53;24.95;;;;;;;;;;5036914;28;20036;-63
2022/11/14 00:32:09;;;;;;;67.57;27.00;;;;;;;;;;5015347;28;20052;-63
2022/11/14 00:34:35;;;;;;;68.38;27.63;;;;;;;;;;5017102;28;20037;-63
2022/11/14 00:37:01;;;;;;;70.03;26.77;;;;;;;;;;5022757;28;20045;-63
2022/11/14 00:39:27;;;;;;;57.25;22.83;;;;;;;;;;5013210;28;20037;-63
2022/11/14 00:41:53;;;;;;;63.03;26.70;;;;;;;;;;5012550;28;20492;-63
2022/11/14 00:44:19;;;;;;;65.07;27.75;;;;;;;;;;4998754;28;20099;-63
2022/11/14 00:46:46;;;;;;;63.55;26.92;;;;;;;;;;5027611;28;20095;-65
2022/11/14 00:49:11;;;;;;;63.03;25.92;;;;;;;;;;5010667;28;20030;-63
2022/11/14 00:51:37;;;;;;;72.40;27.02;;;;;;;;;;4997363;28;20111;-63
2022/11/14 00:54:04;;;;;;;69.30;27.13;;;;;;;;;;5028289;28;20124;-63
2022/11/14 00:56:30;;;;;;;75.18;28.58;;;;;;;;;;4995217;28;20472;-62
2022/11/14 00:58:56;;;;;;;64.15;26.58;;;;;;;;;;4995784;28;20045;-63
2022/11/14 01:01:22;;;;;;;59.67;26.73;;;;;;;;;;5013840;28;20124;-63
2022/11/14 01:03:48;;;;;;;59.20;25.95;;;;;;;;;;5012320;28;20041;-63
2022/11/14 01:06:15;;;;;;;67.40;27.75;;;;;;;;;;5031278;28;20049;-62
2022/11/14 01:08:41;;;;;;;63.67;26.08;;;;;;;;;;5013305;28;20103;-62
2022/11/14 01:11:18;;;;;;;68.72;27.92;;;;;;;;;;4994354;28;20041;-63
2022/11/14 01:13:44;;;;;;;70.55;29.38;;;;;;;;;;5013421;28;20053;-62
2022/11/14 01:16:10;;;;;;;66.35;27.45;;;;;;;;;;5012265;28;20535;-62
2022/11/14 01:18:37;;;;;;;65.72;26.90;;;;;;;;;;5014044;28;20049;-63
2022/11/14 01:21:05;;;;;;;62.03;28.85;;;;;;;;;;5012739;28;20381;-63
2022/11/14 01:23:31;;;;;;;63.00;27.80;;;;;;;;;;4996131;28;20088;-62
2022/11/14 01:26:04;;;;;;;57.72;25.40;;;;;;;;;;5012119;28;20053;-63
2022/11/14 01:28:30;;;;;;;60.50;28.70;;;;;;;;;;5029761;28;20040;-63
2022/11/14 01:30:57;;;;;;;59.90;27.58;;;;;;;;;;5012512;28;20507;-62
2022/11/14 01:33:23;;;;;;;57.45;24.35;;;;;;;;;;5008462;28;20037;-62
2022/11/14 01:35:49;;;;;;;62.75;27.67;;;;;;;;;;5022950;28;20392;-62
2022/11/14 01:38:15;;;;;;;61.53;27.63;;;;;;;;;;4996962;28;20120;-62
2022/11/14 01:40:42;;;;;;;59.22;27.45;;;;;;;;;;5008238;28;20115;-62
2022/11/14 01:43:22;;;;;;;61.28;28.33;;;;;;;;;;4993618;28;20083;-62
2022/11/14 01:45:59;;;;;;;64.70;29.17;;;;;;;;;;5027933;28;20049;-63
2022/11/14 01:48:27;;;;;;;63.15;27.10;;;;;;;;;;5025503;28;20141;-62
2022/11/14 01:50:59;;;;;;;62.17;28.38;;;;;;;;;;5013020;28;20523;-64
2022/11/14 01:53:26;;;;;;;56.20;27.65;;;;;;;;;;5035479;28;20047;-62
2022/11/14 01:55:52;;;;;;;62.22;29.50;;;;;;;;;;5015379;28;20120;-62
2022/11/14 01:58:19;;;;;;;60.38;26.42;;;;;;;;;;5029432;28;20049;-63
2022/11/14 02:00:45;;;;;;;56.90;26.65;;;;;;;;;;5004957;28;20076;-63
2022/11/14 02:03:13;;;;;;;59.13;27.33;;;;;;;;;;5016065;28;20037;-63
2022/11/14 02:05:39;;;;;;;59.97;29.60;;;;;;;;;;4997545;28;20947;-63
2022/11/14 02:08:05;;;;;;;61.28;29.95;;;;;;;;;;5016121;28;20132;-63
2022/11/14 02:10:31;;;;;;;63.17;29.20;;;;;;;;;;5014009;28;20045;-62
2022/11/14 02:12:57;;;;;;;65.88;30.85;;;;;;;;;;5017556;28;20045;-63
2022/11/14 02:15:25;;;;;;;63.72;30.00;;;;;;;;;;5015993;28;20107;-62
2022/11/14 02:17:51;;;;;;;67.13;30.08;;;;;;;;;;5023485;28;20533;-63
2022/11/14 02:20:17;;;;;;;67.25;32.42;;;;;;;;;;5013206;28;20128;-63
2022/11/14 02:22:43;;;;;;;61.08;30.35;;;;;;;;;;5017316;28;20116;-63
2022/11/14 02:25:10;;;;;;;70.18;32.53;;;;;;;;;;5016563;28;20124;-63
2022/11/14 02:27:37;;;;;;;67.05;29.83;;;;;;;;;;5032345;28;20389;-63
2022/11/14 02:30:05;;;;;;;64.97;30.90;;;;;;;;;;5014092;28;20087;-63
2022/11/14 02:32:31;;;;;;;71.45;32.78;;;;;;;;;;4997449;28;20487;-63
2022/11/14 02:34:57;;;;;;;71.72;32.35;;;;;;;;;;5016485;28;20056;-63
2022/11/14 02:37:23;;;;;;;63.60;30.30;;;;;;;;;;5015542;28;20480;-62
2022/11/14 02:39:49;;;;;;;69.10;32.72;;;;;;;;;;4998652;28;20064;-63
2022/11/14 02:42:15;;;;;;;65.50;31.85;;;;;;;;;;5016093;28;20091;-63
2022/11/14 02:44:41;;;;;;;72.60;30.90;;;;;;;;;;5029317;28;20041;-63
2022/11/14 02:47:07;;;;;;;66.40;31.38;;;;;;;;;;5016158;28;20049;-63
2022/11/14 02:49:34;;;;;;;71.70;32.35;;;;;;;;;;5014395;28;20068;-63
2022/11/14 02:52:00;;;;;;;66.25;30.95;;;;;;;;;;5027429;28;20080;-63
2022/11/14 02:54:26;;;;;;;73.88;33.40;;;;;;;;;;5032622;28;20034;-63
2022/11/14 02:56:52;;;;;;;73.88;32.75;;;;;;;;;;5032008;28;20048;-63
2022/11/14 02:59:18;;;;;;;67.25;31.17;;;;;;;;;;5016750;28;20041;-63
2022/11/14 03:01:44;;;;;;;73.55;33.33;;;;;;;;;;5014889;28;20056;-64
2022/11/14 03:04:10;;;;;;;69.63;30.67;;;;;;;;;;5014297;28;20041;-63
2022/11/14 03:06:36;;;;;;;77.70;33.00;;;;;;;;;;5013559;28;20140;-63
2022/11/14 03:09:02;;;;;;;76.07;33.70;;;;;;;;;;5031422;28;20164;-63
2022/11/14 03:11:28;;;;;;;79.15;33.67;;;;;;;;;;5012845;28;20045;-63
2022/11/14 03:13:54;;;;;;;75.28;35.25;;;;;;;;;;5008800;28;20049;-63
2022/11/14 03:16:20;;;;;;;84.43;36.50;;;;;;;;;;5014866;28;20041;-63
2022/11/14 03:18:46;;;;;;;73.82;33.28;;;;;;;;;;5014417;28;20374;-63
2022/11/14 03:21:17;;;;;;;74.07;33.00;;;;;;;;;;5014773;28;20048;-63
2022/11/14 03:23:43;;;;;;;75.93;33.42;;;;;;;;;;4997860;28;20568;-63
2022/11/14 03:26:10;;;;;;;74.03;33.65;;;;;;;;;;5029485;28;20057;-63
2022/11/14 03:28:37;;;;;;;75.43;34.08;;;;;;;;;;5032028;28;20040;-63
2022/11/14 03:31:04;;;;;;;78.40;35.03;;;;;;;;;;4997055;28;20038;-62
2022/11/14 03:33:30;;;;;;;77.72;33.30;;;;;;;;;;4997343;28;20045;-62
2022/11/14 03:35:56;;;;;;;84.18;36.92;;;;;;;;;;5027507;28;20055;-63
2022/11/14 03:38:22;;;;;;;82.82;37.10;;;;;;;;;;5015034;28;20485;-63
2022/11/14 03:40:49;;;;;;;81.13;36.22;;;;;;;;;;5011876;28;20375;-63
2022/11/14 03:43:15;;;;;;;77.07;34.40;;;;;;;;;;5055751;22;20049;-63
2022/11/14 03:45:41;;;;;;;77.05;32.88;;;;;;;;;;5022373;28;20045;-63
2022/11/14 03:48:08;;;;;;;85.07;37.90;;;;;;;;;;5017784;28;20120;-62
2022/11/14 03:50:34;;;;;;;80.07;32.40;;;;;;;;;;5044017;28;20064;-66
2022/11/14 03:53:00;;;;;;;80.63;38.42;;;;;;;;;;5035697;28;20531;-63
2022/11/14 03:55:26;;;;;;;81.32;36.00;;;;;;;;;;5052793;28;20057;-64
2022/11/14 03:57:52;;;;;;;86.47;38.10;;;;;;;;;;5046024;28;20139;-63
2022/11/14 04:00:27;;;;;;;77.90;35.35;;;;;;;;;;5067165;22;20048;-64
2022/11/14 04:02:54;;;;;;;79.40;36.00;;;;;;;;;;5005492;23;20561;-63
2022/11/14 04:05:21;;;;;;;81.28;35.17;;;;;;;;;;4959711;28;20525;-65
2022/11/14 04:07:47;;;;;;;78.65;32.35;;;;;;;;;;4991075;28;20106;-64
2022/11/14 04:10:13;;;;;;;84.15;36.92;;;;;;;;;;4975261;28;20080;-63
2022/11/14 04:12:39;;;;;;;81.32;37.13;;;;;;;;;;4988620;28;20081;-63
2022/11/14 04:15:05;;;;;;;80.63;35.35;;;;;;;;;;4991439;28;20452;-63
2022/11/14 04:17:31;;;;;;;82.60;34.40;;;;;;;;;;4991491;28;20100;-63
2022/11/14 04:19:57;;;;;;;73.50;31.58;;;;;;;;;;4975650;28;20038;-63
2022/11/14 04:22:23;;;;;;;82.97;33.25;;;;;;;;;;4990379;28;20462;-63
2022/11/14 04:24:49;;;;;;;84.45;35.95;;;;;;;;;;4974331;28;20042;-63
2022/11/14 04:27:15;;;;;;;85.72;36.45;;;;;;;;;;4974412;28;20049;-63
2022/11/14 04:29:41;;;;;;;80.75;34.58;;;;;;;;;;4974884;28;20384;-62
2022/11/14 04:32:07;;;;;;;85.78;39.10;;;;;;;;;;4973153;28;20049;-62
2022/11/14 04:34:33;;;;;;;77.13;34.88;;;;;;;;;;4967098;28;20049;-62
2022/11/14 04:36:59;;;;;;;87.15;36.65;;;;;;;;;;4974162;28;20078;-63
2022/11/14 04:39:25;;;;;;;88.57;37.70;;;;;;;;;;4992684;28;20066;-63
2022/11/14 04:41:51;;;;;;;85.90;37.60;;;;;;;;;;4972199;28;20125;-63
2022/11/14 04:44:17;;;;;;;91.50;38.95;;;;;;;;;;4975881;28;20053;-63
2022/11/14 04:46:43;;;;;;;83.55;36.13;;;;;;;;;;4956296;28;20445;-63
2022/11/14 04:49:09;;;;;;;86.80;36.38;;;;;;;;;;4959227;28;20097;-63
2022/11/14 04:51:35;;;;;;;81.55;36.17;;;;;;;;;;4991542;28;20077;-63
2022/11/14 04:54:01;;;;;;;91.05;36.00;;;;;;;;;;4973536;28;20057;-63
2022/11/14 04:56:28;;;;;;;87.97;36.75;;;;;;;;;;4979759;28;20049;-63
2022/11/14 04:58:54;;;;;;;84.82;36.20;;;;;;;;;;4993289;28;20462;-63
2022/11/14 05:01:20;;;;;;;85.30;37.13;;;;;;;;;;4973689;28;20057;-64
2022/11/14 05:03:46;;;;;;;94.57;38.72;;;;;;;;;;4988997;28;20053;-63
2022/11/14 05:06:12;;;;;;;88.05;37.33;;;;;;;;;;4973952;28;20368;-63
2022/11/14 05:08:38;;;;;;;86.20;36.83;;;;;;;;;;4974411;28;20094;-63
2022/11/14 05:11:04;;;;;;;81.97;34.95;;;;;;;;;;4974193;28;20507;-62
2022/11/14 05:13:30;;;;;;;92.75;36.50;;;;;;;;;;4973165;28;20148;-63
2022/11/14 05:16:00;;;;;;;86.88;35.67;;;;;;;;;;4969635;28;20281;-63
2022/11/14 05:18:26;;;;;;;89.40;37.40;;;;;;;;;;4990625;28;20061;-63
2022/11/14 05:20:52;;;;;;;86.30;35.65;;;;;;;;;;4972000;28;20050;-63
2022/11/14 05:23:19;;;;;;;81.63;35.15;;;;;;;;;;4957707;28;20042;-63
2022/11/14 05:25:45;;;;;;;93.20;39.22;;;;;;;;;;4990385;28;20054;-63
2022/11/14 05:28:11;;;;;;;95.88;38.75;;;;;;;;;;4957587;28;20518;-63
2022/11/14 05:30:37;;;;;;;85.18;36.67;;;;;;;;;;4972471;28;20083;-63
2022/11/14 05:33:03;;;;;;;81.93;37.25;;;;;;;;;;4972418;28;20085;-63
2022/11/14 05:35:29;;;;;;;91.68;37.17;;;;;;;;;;4984384;28;20054;-63
2022/11/14 05:37:55;;;;;;;80.68;36.45;;;;;;;;;;4987172;28;20521;-62
2022/11/14 05:40:21;;;;;;;84.85;35.80;;;;;;;;;;4986349;28;20045;-63
2022/11/14 05:42:47;;;;;;;84.95;35.35;;;;;;;;;;4957008;28;20117;-63
2022/11/14 05:45:13;;;;;;;85.15;35.33;;;;;;;;;;4974390;28;20050;-62
2022/11/14 05:47:39;;;;;;;89.57;37.78;;;;;;;;;;4956180;28;20407;-63
2022/11/14 05:50:06;;;;;;;78.93;32.88;;;;;;;;;;4973729;28;20046;-62
2022/11/14 05:52:32;;;;;;;88.45;37.15;;;;;;;;;;4973855;28;20049;-62
2022/11/14 05:54:58;;;;;;;80.70;34.47;;;;;;;;;;4972534;28;20058;-63
2022/11/14 05:57:23;;;;;;;94.25;39.55;;;;;;;;;;4982975;28;20047;-62
2022/11/14 05:59:49;;;;;;;88.05;38.00;;;;;;;;;;4971964;28;20058;-63
2022/11/14 06:02:15;;;;;;;91.20;38.60;;;;;;;;;;4991268;28;20144;-63
2022/11/14 06:04:41;;;;;;;90.70;38.42;;;;;;;;;;4985291;28;20050;-63
2022/11/14 06:07:07;;;;;;;83.72;36.53;;;;;;;;;;4974132;28;20049;-63
2022/11/14 06:09:33;;;;;;;82.30;35.88;;;;;;;;;;4975157;28;20093;-63
2022/11/14 06:11:59;;;;;;;85.43;38.10;;;;;;;;;;4971530;28;20046;-62
2022/11/14 06:14:25;;;;;;;87.57;37.25;;;;;;;;;;4971929;28;20462;-63
2022/11/14 06:16:51;;;;;;;82.97;38.53;;;;;;;;;;4974604;28;20050;-63
2022/11/14 06:19:17;;;;;;;80.82;34.50;;;;;;;;;;4974668;28;20050;-63
2022/11/14 06:21:43;;;;;;;90.63;38.50;;;;;;;;;;4990883;28;20084;-63
2022/11/14 06:24:09;;;;;;;89.30;38.38;;;;;;;;;;4991483;28;20077;-63
2022/11/14 06:26:35;;;;;;;82.10;35.60;;;;;;;;;;4972923;28;20060;-63
2022/11/14 06:29:01;;;;;;;86.20;36.80;;;;;;;;;;4974476;28;20042;-63
2022/11/14 06:31:28;;;;;;;83.68;35.05;;;;;;;;;;4974459;28;20049;-63
2022/11/14 06:33:55;;;;;;;89.18;37.28;;;;;;;;;;4973385;28;20046;-63
2022/11/14 06:36:21;;;;;;;84.55;37.00;;;;;;;;;;4989003;28;20410;-62
2022/11/14 06:38:47;;;;;;;83.47;36.10;;;;;;;;;;4991512;28;20121;-63
2022/11/14 06:41:15;;;;;;;81.18;36.10;;;;;;;;;;4977793;28;20043;-63
2022/11/14 06:43:42;;;;;;;83.40;38.47;;;;;;;;;;4977664;28;20129;-63
2022/11/14 06:46:08;;;;;;;84.90;37.85;;;;;;;;;;4991152;28;20077;-63
2022/11/14 06:48:35;;;;;;;85.93;37.70;;;;;;;;;;4994249;28;20046;-64
2022/11/14 06:51:01;;;;;;;93.35;38.97;;;;;;;;;;4989954;28;20046;-63
2022/11/14 06:53:28;;;;;;;84.70;35.78;;;;;;;;;;4976103;28;20402;-62
2022/11/14 06:56:02;;;;;;;84.85;40.22;;;;;;;;;;4992123;28;20078;-63
2022/11/14 06:58:31;;;;;;;88.10;37.25;;;;;;;;;;4986995;28;20076;-62
2022/11/14 07:01:08;;;;;;;83.65;35.17;;;;;;;;;;4972301;28;20078;-62
2022/11/14 07:03:34;;;;;;;78.25;36.63;;;;;;;;;;5009228;28;20099;-64
2022/11/14 07:06:00;;;;;;;86.90;37.97;;;;;;;;;;5012927;28;20547;-62
2022/11/14 07:08:26;;;;;;;86.85;37.72;;;;;;;;;;5007190;28;20064;-61
2022/11/14 07:10:52;;;;;;;78.95;34.20;;;;;;;;;;5022299;28;20049;-63
2022/11/14 07:13:19;;;;;;;86.10;36.35;;;;;;;;;;5020647;28;20034;-62
2022/11/14 07:15:52;;;;;;;83.72;37.63;;;;;;;;;;5029006;23;20424;-62
2022/11/14 07:18:18;;;;;;;86.00;39.88;;;;;;;;;;5038502;28;20049;-63
2022/11/14 07:20:44;;;;;;;81.15;36.42;;;;;;;;;;5018210;28;20045;-62
2022/11/14 07:23:10;;;;;;;80.03;35.45;;;;;;;;;;5000622;28;20050;-63
2022/11/14 07:25:36;;;;;;;86.20;37.78;;;;;;;;;;5032548;28;20068;-62
2022/11/14 07:28:02;;;;;;;89.05;38.20;;;;;;;;;;5006826;28;20519;-62
2022/11/14 07:30:28;;;;;;;84.05;37.33;;;;;;;;;;5018535;28;20128;-63
2022/11/14 07:32:58;;;;;;;78.57;35.42;;;;;;;;;;5034479;28;20087;-62
2022/11/14 07:35:24;;;;;;;85.00;36.50;;;;;;;;;;5025162;28;20041;-62
2022/11/14 07:37:50;;;;;;;84.80;37.40;;;;;;;;;;5052730;28;20052;-62
2022/11/14 07:40:17;;;;;;;89.78;34.55;;;;;;;;;;5053682;28;20044;-62
2022/11/14 07:42:43;;;;;;;86.85;37.40;;;;;;;;;;5006654;28;20133;-62
2022/11/14 07:45:09;;;;;;;84.05;36.50;;;;;;;;;;5046667;28;20057;-63
2022/11/14 07:47:35;;;;;;;85.40;35.45;;;;;;;;;;5017616;28;20405;-63
2022/11/14 07:50:01;;;;;;;86.47;34.53;;;;;;;;;;5026140;28;20447;-62
2022/11/14 07:52:30;;;;;;;85.90;37.65;;;;;;;;;;5038473;28;20072;-62
2022/11/14 07:54:56;;;;;;;82.53;35.60;;;;;;;;;;5034529;28;20037;-62
2022/11/14 07:57:22;;;;;;;84.18;37.03;;;;;;;;;;5032099;28;20077;-62
2022/11/14 07:59:48;;;;;;;88.05;37.85;;;;;;;;;;5024233;28;20136;-62
2022/11/14 08:02:14;;;;;;;79.35;34.85;;;;;;;;;;5049151;28;20557;-62
2022/11/14 08:04:41;;;;;;;88.30;39.45;;;;;;;;;;5019568;28;20053;-63
2022/11/14 08:07:07;;;;;;;85.72;37.92;;;;;;;;;;5046918;28;20509;-62
2022/11/14 08:09:33;;;;;;;82.03;38.20;;;;;;;;;;5054608;28;20052;-63
2022/11/14 08:12:00;;;;;;;75.80;34.58;;;;;;;;;;4999160;28;20049;-62
2022/11/14 08:14:26;;;;;;;81.40;36.33;;;;;;;;;;5013760;28;20052;-63
2022/11/14 08:16:52;;;;;;;84.93;38.15;;;;;;;;;;5026601;28;20137;-61
2022/11/14 08:19:18;;;;;;;91.13;37.92;;;;;;;;;;5021549;28;20484;-61
2022/11/14 08:21:44;;;;;;;84.32;36.45;;;;;;;;;;5039001;28;20052;-62
2022/11/14 08:24:10;;;;;;;88.93;37.08;;;;;;;;;;5035271;28;20041;-62
2022/11/14 08:26:39;;;;;;;82.03;35.10;;;;;;;;;;5012650;28;20060;-63
2022/11/14 08:29:05;;;;;;;86.78;38.97;;;;;;;;;;5034068;28;20044;-62
2022/11/14 08:31:31;;;;;;;75.95;35.15;;;;;;;;;;5022727;28;20129;-62
2022/11/14 08:33:57;;;;;;;80.90;34.65;;;;;;;;;;5032194;28;20128;-62
2022/11/14 08:36:23;;;;;;;83.88;38.17;;;;;;;;;;5039391;28;20049;-62
2022/11/14 08:38:49;;;;;;;76.05;35.85;;;;;;;;;;5016762;28;20053;-62
2022/11/14 08:41:15;;;;;;;77.13;34.20;;;;;;;;;;5031780;28;20053;-63
2022/11/14 08:43:41;;;;;;;79.05;35.10;;;;;;;;;;5010970;28;20500;-63
2022/11/14 08:46:07;;;;;;;74.53;33.72;;;;;;;;;;5042910;28;20456;-63
2022/11/14 08:48:33;;;;;;;73.70;32.83;;;;;;;;;;5036736;28;20037;-63
2022/11/14 08:51:06;;;;;;;77.80;34.55;;;;;;;;;;5034872;28;20045;-63
2022/11/14 08:53:32;;;;;;;72.72;33.15;;;;;;;;;;5034858;28;20045;-63
2022/11/14 08:55:58;;;;;;;68.43;26.63;;;;;;;;;;5017124;28;20102;-62
2022/11/14 08:58:27;;;;;;;72.45;33.05;;;;;;;;;;5018629;28;20112;-63
2022/11/14 09:00:54;;;;;;;74.32;30.95;;;;;;;;;;5013880;28;20186;-63
2022/11/14 09:03:20;;;;;;;72.55;33.25;;;;;;;;;;5049912;28;20047;-63
2022/11/14 09:05:50;;;;;;;78.63;34.60;;;;;;;;;;5040621;28;20061;-63
2022/11/14 09:08:16;;;;;;;;;;;6.50;99.90;;;;;;5030210;28;20188;-63
2022/11/14 09:10:42;;;;;;;74.53;34.92;;;;;;;;;;5037280;28;20008;-63
2022/11/14 09:13:08;;;;;;;82.43;36.78;;;;;;;;;;5027607;28;20045;-62
2022/11/14 09:15:34;;;;;;;66.35;31.40;;;;;;;;;;5031385;28;20489;-65
2022/11/14 09:18:00;;;;;;;76.60;33.22;;;;;;;;;;5047547;28;20061;-63
2022/11/14 09:20:29;;;;;;;77.75;33.28;;;;;;;;;;5042408;28;20056;-62
2022/11/14 09:22:57;;;;;;;72.00;32.33;;;;;;;;;;5026831;28;20397;-63
2022/11/14 09:25:25;;;;;;;70.20;33.80;;;;;;;;;;5033027;28;20115;-63
2022/11/14 09:27:51;;;;;;;71.22;33.28;;;;;;;;;;5030180;28;20124;-62
2022/11/14 09:30:17;;;;;;;71.88;32.90;;;;;;;;;;5019285;28;20126;-62
2022/11/14 09:32:43;;;;;;;71.97;32.88;;;;;;;;;;5014251;28;20045;-63
2022/11/14 09:35:11;;;;;;;72.63;32.92;;;;;;;;;;5010932;28;20045;-63
2022/11/14 09:37:37;;;;;;;66.80;32.38;;;;;;;;;;5041738;28;20099;-63
2022/11/14 09:40:04;;;;;;;63.33;29.42;;;;;;;;;;5046491;28;20045;-63
2022/11/14 09:42:30;;;;;;;66.30;30.95;;;;;;;;;;5035438;28;20087;-63
2022/11/14 09:45:03;;;;;;;72.45;33.00;;;;;;;;;;5045210;28;20077;-63
2022/11/14 09:47:30;;;;;;;69.45;30.65;;;;;;;;;;5031963;28;20092;-63
2022/11/14 09:50:04;;;;;;;69.63;32.88;;;;;;;;;;5029377;28;20053;-64
2022/11/14 09:52:37;;;;;;;67.05;32.28;;;;;;;;;;5045038;28;20053;-64
2022/11/14 09:55:10;;;;;;;59.63;29.75;;;;;;;;;;5037762;28;20046;-65
2022/11/14 09:57:36;;;;;;;58.03;28.35;;;;;;;;;;5014238;28;20124;-64
2022/11/14 10:00:06;;;;;;;59.05;28.27;;;;;;;;;;5036871;28;20037;-63
2022/11/14 10:02:56;;;;;;;62.88;29.08;;;7.10;99.90;;;;;;5038088;28;20049;-64
2022/11/14 10:05:28;;;;;;;57.25;27.70;;;;;;;;;;5043013;28;20045;-64
2022/11/14 10:07:54;;;;;;;55.97;28.60;;;;;;;;;;5047205;28;20451;-64
2022/11/14 10:10:32;;;;;;;54.53;28.30;;;;;;;;;;5013751;28;20394;-64
2022/11/14 10:12:58;;;;;;;58.30;28.70;;;;;;;;;;5030732;28;20099;-64
2022/11/14 10:15:46;;;;;;;59.45;28.08;;;;;;;;;;5033872;28;20049;-63
2022/11/14 10:18:22;;;;;;;53.28;28.85;;;;;;;;;;5002076;28;20037;-64
2022/11/14 10:20:51;;;;;;;56.60;27.00;;;;;;;;;;5023512;28;20053;-64
2022/11/14 10:23:17;;;;;;;55.58;28.45;;;;;;;;;;5034864;28;20106;-63
2022/11/14 10:26:18;;;;;;;55.83;28.35;;;7.70;99.90;;;;;;5033593;28;20118;-63
2022/11/14 10:28:52;;;;;;;;;;;7.90;99.90;;;;;;5035160;28;20041;-64
2022/11/14 10:31:21;;;;;;;54.20;25.70;;;;;;;;;;5043715;28;20297;-63
2022/11/14 10:33:59;;;;;;;51.67;27.80;;;;;;;;;;5032606;28;20053;-64
2022/11/14 10:36:47;;;;;;;51.45;26.48;;;;;;;;;;5033507;28;20057;-64
2022/11/14 10:39:19;;;;;;;46.92;24.55;;;;;;;;;;5032874;28;20485;-63
2022/11/14 10:41:46;;;;;;;44.72;21.10;;;;;;;;;;5033675;28;20053;-64
2022/11/14 10:44:15;;;;;;;47.85;23.35;;;;;;;;;;5032086;28;20056;-64
2022/11/14 10:46:47;;;;;;;50.20;26.05;;;;;;;;;;5035015;28;20769;-64
2022/11/14 10:49:16;;;;;;;48.55;25.08;;;;;;;;;;5016099;28;20049;-64
2022/11/14 10:51:47;;;;;;;48.75;24.35;;;;;;;;;;5030965;28;20041;-64
2022/11/14 10:54:18;;;;;;;44.38;23.33;;;;;;;;;;5015232;28;20045;-64
2022/11/14 10:56:47;;;;;;;51.78;25.88;;;;;;;;;;5044012;28;20132;-64
2022/11/14 10:59:14;;;;;;;49.08;23.30;;;;;;;;;;5015447;28;20037;-64
2022/11/14 11:01:45;;;;;;;45.42;23.88;;;;;;;;;;5033633;28;20111;-64
2022/11/14 11:04:26;;;;;;;43.78;23.42;;;;;;;;;;5034368;28;20520;-63
2022/11/14 11:06:54;;;;;;;43.83;22.70;;;;;;;;;;5006769;28;20053;-64
2022/11/14 11:12:07;;;;;;;47.65;25.35;;;;;;;;;;5044609;28;20052;-64
2022/11/14 11:14:33;;;;;;;40.40;21.27;;;;;;;;;;5020480;28;20053;-63
2022/11/14 11:17:11;;;;;;;42.55;22.23;;;;;;;;;;5038760;28;20049;-63
2022/11/14 11:19:47;;;;;;;40.40;22.40;;;;;;;;;;5032827;28;20038;-64
2022/11/14 11:22:22;;;;;;;45.20;23.75;;;;;;;;;;5014335;28;20049;-64
2022/11/14 11:24:48;;;;;;;46.00;23.88;;;;;;;;;;5029813;28;20060;-64
2022/11/14 11:27:25;;;;;;;45.25;23.85;;;;;;;;;;5018111;28;20132;-63
2022/11/14 11:30:05;;;;;;;42.35;23.05;;;;;;;;;;5029668;28;20450;-63
2022/11/14 11:32:31;;;;;;;44.63;21.65;;;;;;;;;;5032758;28;20053;-63
2022/11/14 11:34:59;;;;;;;45.72;23.67;;;;;;;;;;5030585;28;20045;-63
2022/11/14 11:37:30;;;;;;;47.33;24.65;;;;;;;;;;4997837;28;20049;-63
2022/11/14 11:40:00;;;;;;;47.13;23.70;;;;;;;;;;5032465;28;20127;-64
2022/11/14 11:42:26;;;;;;;46.23;25.07;;;;;;;;;;5034137;28;20053;-64
2022/11/14 11:44:57;;;;;;;48.42;25.20;;;;;;;;;;5048174;28;20306;-65
2022/11/14 11:47:23;;;;;;;47.53;23.67;;;;;;;;;;5034762;28;20124;-65
2022/11/14 11:49:50;;;;;;;44.63;23.48;;;;;;;;;;5000716;28;20056;-65
2022/11/14 11:52:19;;;;;;;47.03;24.60;;;;;;;;;;5031751;28;20129;-65
2022/11/14 11:54:52;;;;;;;43.92;23.75;;;;;;;;;;5013242;28;20057;-65
2022/11/14 11:57:22;;;;;;;42.20;23.95;;;;;;;;;;5032857;28;20034;-64
2022/11/14 11:59:51;;;;;;;46.05;25.08;;;;;;;;;;5016368;28;20053;-65
2022/11/14 12:02:22;;;;;;;43.03;25.30;;;;;;;;;;5033102;28;20085;-64
2022/11/14 12:04:48;;;;;;;;;;;;;;;;;;5023409;28;20048;-64
2022/11/14 12:07:15;;;;;;;41.97;20.88;;;;;;;;;;5030844;28;19924;-64
2022/11/14 12:09:41;;;;;;;41.47;23.33;;;;;;;;;;5030073;28;20049;-64
2022/11/14 12:12:13;;;;;;;42.15;23.00;;;;;;;;;;5053567;28;20048;-64
2022/11/14 12:14:50;;;;;;;43.05;23.00;;;;;;;;;;5034744;28;20046;-65
2022/11/14 12:17:27;;;;;;;43.03;25.02;;;;;;;;;;5033914;28;20068;-65
2022/11/14 12:20:03;;;;;;;42.05;23.00;;;;;;;;;;5023881;28;20081;-65
2022/11/14 12:22:43;;;;;;;45.28;23.42;;;;;;;;;;4996125;28;20077;-64
2022/11/14 12:25:27;;;;;;;43.08;23.42;;;;;;;;;;5013385;28;20038;-64
2022/11/14 12:28:30;;;;;;;47.42;25.30;;;9.50;99.90;;;;;;5046241;28;20048;-65
2022/11/14 12:30:59;;;;;;;44.50;24.40;;;;;;;;;;5022446;28;20133;-64
2022/11/14 12:33:28;;;;;;;39.15;21.38;;;;;;;;;;5014357;28;20041;-64
2022/11/14 12:35:57;;;;;;;36.60;20.38;;;;;;;;;;5029131;28;20482;-65
2022/11/14 12:38:23;;;;;;;38.70;22.30;;;;;;;;;;5033102;28;20464;-65
2022/11/14 12:40:54;;;;;;;39.58;22.02;;;;;;;;;;5014099;28;20045;-65
2022/11/14 12:43:32;;;;;;;42.92;22.92;;;;;;;;;;5031291;28;20069;-65
2022/11/14 12:45:59;;;;;;;39.58;20.40;;;;;;;;;;5010840;28;20041;-64
2022/11/14 12:48:25;;;;;;;39.88;21.75;;;;;;;;;;5015507;28;20045;-65
2022/11/14 12:50:52;;;;;;;36.65;21.98;;;;;;;;;;5040223;28;20037;-65
2022/11/14 12:53:36;;;;;;;36.35;22.48;;;;;;;;;;5023974;28;20501;-65
2022/11/14 12:56:05;;;;;;;39.60;22.67;;;;;;;;;;5030896;28;20037;-64
2022/11/14 12:58:57;;;;;;;38.28;20.65;;;;;;;;;;5042320;28;20044;-65
2022/11/14 13:01:27;;;;;;;34.15;18.42;;;;;;;;;;5027933;28;20053;-65
2022/11/14 13:04:10;;;;;;;33.25;19.40;;;;;;;;;;5018078;28;20118;-65
2022/11/14 13:06:36;;;;;;;32.65;19.48;;;;;;;;;;5015231;28;20405;-65
2022/11/14 13:09:05;;;;;;;32.70;19.27;;;;;;;;;;5018732;28;20044;-65
2022/11/14 13:23:27;;;;;;;28.63;17.45;;;;;;;;;;5052160;28;20413;-64
2022/11/14 13:26:12;;;;;;;28.27;16.80;;;;;;;;;;5012632;28;20041;-65
2022/11/14 13:28:38;;;;;;;30.25;16.52;;;;;;;;;;5011383;28;20081;-65
2022/11/14 13:31:05;;;;;;;27.25;16.75;;;;;;;;;;5043330;28;20076;-65
2022/11/14 13:33:43;;;;;;;33.05;18.52;;;;;;;;;;5011040;28;20057;-65
2022/11/14 13:36:18;;;;;;;29.88;16.70;;;;;;;;;;5020488;28;20048;-65
2022/11/14 13:38:56;;;;;;;28.38;18.92;;;;;;;;;;4998321;28;20045;-64
2022/11/14 13:41:29;;;;;;;29.10;17.33;;;;;;;;;;5039493;28;20113;-65
2022/11/14 13:44:33;;;;;;;29.35;17.38;;;9.70;99.90;;;;;;5046740;28;20099;-65
2022/11/14 13:47:08;;;;;;;31.33;18.40;;;;;;;;;;5044096;28;20060;-66
2022/11/14 13:49:47;;;;;;;27.70;15.38;;;;;;;;;;5014740;28;20051;-65
2022/11/14 13:52:13;;;;;;;31.30;16.30;;;;;;;;;;5053651;28;20123;-63
2022/11/14 13:54:47;;;;;;;28.35;17.15;;;;;;;;;;5025536;28;20050;-65
2022/11/14 13:57:37;;;;;;;29.58;17.13;;;;;;;;;;5033202;28;20041;-63
2022/11/14 14:00:12;;;;;;;25.85;15.63;;;;;;;;;;5035775;28;20045;-64
2022/11/14 14:02:39;;;;;;;30.75;17.83;;;;;;;;;;5050604;28;20052;-63
2022/11/14 14:05:09;;;;;;;27.70;16.77;;;;;;;;;;5034013;28;20099;-63
2022/11/14 14:07:49;;;;;;;27.10;15.65;;;;;;;;;;5009867;28;20504;-63
2022/11/14 14:10:18;;;;;;;27.30;16.13;;;;;;;;;;5016409;28;20095;-62
2022/11/14 14:12:53;;;;;;;26.60;16.75;;;;;;;;;;5016673;28;20049;-63
2022/11/14 14:15:36;;;;;;;25.83;15.60;;;;;;;;;;5028680;28;20497;-63
2022/11/14 14:18:21;;;;;;;25.83;16.30;;;;;;;;;;5023548;28;20120;-63
2022/11/14 14:20:53;;;;;;;26.48;16.67;;;;;;;;;;5033847;28;20061;-64
2022/11/14 14:23:22;;;;;;;26.77;16.80;;;;;;;;;;5016845;28;20128;-64
2022/11/14 14:25:57;;;;;;;28.45;17.10;;;;;;;;;;5020797;28;20405;-63
2022/11/14 14:28:41;;;;;;;26.23;16.75;;;;;;;;;;5020833;28;20573;-64
2022/11/14 14:31:07;;;;;;;25.50;16.85;;;;;;;;;;5045387;28;20091;-64
2022/11/14 14:34:00;;;;;;;26.95;16.92;;;;;;;;;;5052426;28;20088;-64
2022/11/14 14:36:28;;;;;;;29.55;17.27;;;;;;;;;;5027568;28;20061;-64
2022/11/14 14:39:13;;;;;;;28.60;16.77;;;;;;;;;;5017205;28;20053;-63